Time;durP1;ratioP1;P1;durP2;ratioP2;P2;SDS_P1;SDS_P2;PMS_P1;PMS_P2;Temp;Humidity;BMP_temperature;BMP_pressure;BME280_temperature;BME280_humidity;BME280_pressure;Samples;Min_cycle;Max_cycle;Signal;HPM_P1;HPM_P2
2023/03/08 00:00:07;;;;;;;9.73;5.13;;;;;;;;;;5042082;28;20040;-74
2023/03/08 00:02:32;;;;;;;7.65;4.75;;;;;;;;;;5060159;28;20051;-74
2023/03/08 00:04:58;;;;;;;8.13;5.03;;;;;;;;;;5063479;28;20020;-74
2023/03/08 00:07:23;;;;;;;8.07;4.88;;;;;;;;;;5064739;28;20317;-76
2023/03/08 00:09:49;;;;;;;9.02;5.47;;;;;;;;;;5048484;28;20059;-75
2023/03/08 00:12:18;;;;;;;7.45;4.78;;;;;;;;;;5038679;28;20053;-74
2023/03/08 00:14:43;;;;;;;10.57;5.13;;;;;;;;;;5061281;28;20027;-73
2023/03/08 00:17:09;;;;;;;8.77;4.90;;;;;;;;;;5049338;28;20064;-74
2023/03/08 00:19:34;;;;;;;7.65;4.85;;;;;;;;;;5043240;28;20036;-74
2023/03/08 00:22:00;;;;;;;7.90;4.68;;;;;;;;;;5063170;28;20031;-74
2023/03/08 00:24:25;;;;;;;9.93;5.18;;;;;;;;;;5050722;28;20033;-73
2023/03/08 00:26:50;;;;;;;8.50;5.10;;;;;;;;;;5049542;28;20055;-73
2023/03/08 00:29:16;;;;;;;8.65;4.85;;;;;;;;;;5067862;28;20033;-74
2023/03/08 00:31:41;;;;;;;9.35;4.78;;;;;;;;;;5047617;28;20071;-73
2023/03/08 00:34:06;;;;;;;9.68;5.03;;;;;;;;;;5064155;28;20025;-74
2023/03/08 00:36:32;;;;;;;7.82;4.63;;;;;;;;;;5064043;28;20024;-74
2023/03/08 00:38:57;;;;;;;9.68;5.18;;;;;;;;;;5047907;28;20040;-74
2023/03/08 00:41:23;;;;;;;8.05;4.75;;;;;;;;;;5050275;28;20035;-74
2023/03/08 00:43:48;;;;;;;8.90;4.80;;;;;;;;;;5067308;28;20040;-74
2023/03/08 00:46:14;;;;;;;8.15;4.63;;;;;;;;;;5065188;28;20080;-75
2023/03/08 00:48:40;;;;;;;9.23;4.95;;;;;;;;;;5047480;28;20112;-74
2023/03/08 00:51:06;;;;;;;7.53;4.60;;;;;;;;;;5065877;28;20086;-74
2023/03/08 00:53:32;;;;;;;8.60;4.97;;;;;;;;;;5063523;28;20033;-74
2023/03/08 00:55:59;;;;;;;8.15;4.90;;;;;;;;;;5059374;28;21334;-74
2023/03/08 00:58:26;;;;;;;8.93;5.43;;;;;;;;;;5058380;28;20029;-73
2023/03/08 01:00:52;;;;;;;8.70;4.95;;;;;;;;;;5052268;28;20060;-74
2023/03/08 01:03:19;;;;;;;7.55;4.68;;;;;;;;;;5037261;28;20013;-75
2023/03/08 01:05:47;;;;;;;7.88;4.55;;;;;;;;;;5058769;28;20052;-74
2023/03/08 01:08:14;;;;;;;7.78;4.93;;;;;;;;;;5066042;28;20025;-75
2023/03/08 01:10:45;;;;;;;9.40;5.32;;;;;;;;;;5059145;28;20037;-74
2023/03/08 01:13:10;;;;;;;9.52;4.93;;;;;;;;;;5059938;28;20021;-75
2023/03/08 01:15:37;;;;;;;7.65;4.60;;;;;;;;;;5061313;28;20050;-75
2023/03/08 01:18:04;;;;;;;7.30;4.38;;;;;;;;;;5060596;28;20120;-74
2023/03/08 01:20:29;;;;;;;9.65;5.10;;;;;;;;;;5043711;28;20067;-75
2023/03/08 01:22:54;;;;;;;9.50;5.35;;;;;;;;;;5058634;28;20022;-74
2023/03/08 01:25:20;;;;;;;9.18;5.15;;;;;;;;;;5070284;28;20017;-74
2023/03/08 01:27:45;;;;;;;9.93;5.43;;;;;;;;;;5068466;28;20052;-73
2023/03/08 01:30:11;;;;;;;8.85;5.38;;;;;;;;;;5068781;28;20032;-74
2023/03/08 01:32:36;;;;;;;11.38;5.82;;;;;;;;;;5050872;28;20024;-74
2023/03/08 01:35:04;;;;;;;9.75;5.35;;;;;;;;;;5051604;28;20029;-75
2023/03/08 01:37:30;;;;;;;9.20;5.57;;;;;;;;;;5069022;28;20047;-74
2023/03/08 01:39:56;;;;;;;10.63;5.53;;;;;;;;;;5063147;28;20021;-75
2023/03/08 01:42:21;;;;;;;10.73;6.28;;;;;;;;;;5059857;28;20036;-74
2023/03/08 01:44:59;;;;;;;10.70;6.63;;;;;;;;;;5065097;28;20021;-74
2023/03/08 01:47:27;;;;;;;10.68;6.15;;;;;;;;;;5064312;28;20017;-75
2023/03/08 01:49:56;;;;;;;12.40;6.95;;;;;;;;;;5047595;28;20021;-76
2023/03/08 01:52:33;;;;;;;12.18;6.60;;;;;;;;;;5050769;28;20101;-74
2023/03/08 01:55:02;;;;;;;11.70;6.88;;;;;;;;;;5049050;28;20029;-74
2023/03/08 01:57:31;;;;;;;11.82;7.40;;;;;;;;;;5049151;28;20100;-74
2023/03/08 02:00:10;;;;;;;11.75;7.43;;;;;;;;;;5061971;28;20077;-74
2023/03/08 02:02:57;;;;;;;12.45;7.60;;;;;;;;;;5045868;28;20029;-74
2023/03/08 02:05:23;;;;;;;14.40;7.30;;;;;;;;;;5065480;28;20028;-75
2023/03/08 02:07:48;;;;;;;13.95;7.53;;;;;;;;;;5060752;28;20044;-76
2023/03/08 02:10:15;;;;;;;13.25;8.02;;;;;;;;;;5043555;28;20040;-76
2023/03/08 02:12:40;;;;;;;13.50;8.30;;;;;;;;;;5059209;28;20032;-75
2023/03/08 02:15:09;;;;;;;13.85;9.05;;;;;;;;;;5045231;28;20029;-74
2023/03/08 02:17:40;;;;;;;13.57;8.75;;;;;;;;;;5052736;28;20024;-73
2023/03/08 02:20:12;;;;;;;14.13;9.20;;;;;;;;;;5045218;28;20093;-74
2023/03/08 02:22:40;;;;;;;16.10;9.27;;;;;;;;;;5060387;28;20085;-74
2023/03/08 02:25:22;;;;;;;17.45;10.20;;;;;;;;;;5066419;28;20033;-73
2023/03/08 02:27:50;;;;;;;16.85;10.07;;;;;;;;;;5068103;28;20035;-74
2023/03/08 02:30:25;;;;;;;16.85;9.75;;;;;;;;;;5053183;28;20123;-74
2023/03/08 02:37:53;;;;;;;16.27;9.88;;;;;;;;;;5041258;28;20045;-74
2023/03/08 02:40:19;;;;;;;20.00;10.45;;;;;;;;;;5044074;28;20025;-74
2023/03/08 02:42:44;;;;;;;22.08;10.82;;;;;;;;;;5025264;28;20124;-73
2023/03/08 02:45:10;;;;;;;20.13;11.57;;;;;;;;;;5023118;28;20038;-75
2023/03/08 02:47:35;;;;;;;22.50;10.77;;;;;;;;;;5028314;28;20051;-74
2023/03/08 02:50:01;;;;;;;27.73;12.48;;;;;;;;;;5041092;28;20022;-74
2023/03/08 02:52:27;;;;;;;24.25;11.48;;;;;;;;;;5048602;28;20036;-74
2023/03/08 02:54:52;;;;;;;23.83;12.15;;;;;;;;;;5045552;28;20056;-75
2023/03/08 02:57:18;;;;;;;26.27;11.93;;;;;;;;;;5045132;28;20029;-74
2023/03/08 02:59:44;;;;;;;23.75;12.30;;;;;;;;;;5014249;28;20025;-76
2023/03/08 03:02:09;;;;;;;21.27;10.90;;;;;;;;;;5027606;28;20036;-74
2023/03/08 03:04:35;;;;;;;22.42;11.50;;;;;;;;;;5038111;28;20093;-75
2023/03/08 03:07:00;;;;;;;23.45;11.77;;;;;;;;;;5028227;28;20029;-76
2023/03/08 03:09:26;;;;;;;19.70;10.07;;;;;;;;;;5033451;28;20059;-73
2023/03/08 03:11:52;;;;;;;22.65;11.30;;;;;;;;;;5053626;28;20025;-74
2023/03/08 03:14:17;;;;;;;24.65;12.07;;;;;;;;;;5034106;28;20072;-74
2023/03/08 03:16:43;;;;;;;21.67;12.00;;;;;;;;;;5043950;28;20037;-75
2023/03/08 03:19:08;;;;;;;25.98;12.55;;;;;;;;;;5027837;28;20091;-75
2023/03/08 03:21:34;;;;;;;24.33;11.65;;;;;;;;;;5052330;28;20052;-74
2023/03/08 03:23:59;;;;;;;24.73;12.25;;;;;;;;;;5051836;28;20456;-73
2023/03/08 03:26:25;;;;;;;22.85;11.05;;;;;;;;;;5031618;28;20041;-74
2023/03/08 03:28:54;;;;;;;25.85;12.50;;;;;;;;;;5053595;28;20017;-73
2023/03/08 03:31:21;;;;;;;26.30;12.07;;;;;;;;;;5035914;28;20104;-75
2023/03/08 03:33:48;;;;;;;24.90;12.43;;;;;;;;;;5048461;28;20025;-74
2023/03/08 03:36:16;;;;;;;27.00;12.70;;;;;;;;;;5027305;28;20029;-74
2023/03/08 03:38:43;;;;;;;29.83;13.65;;;;;;;;;;5029125;28;20037;-74
2023/03/08 03:41:11;;;;;;;25.25;11.98;;;;;;;;;;5015214;28;20025;-73
2023/03/08 03:43:36;;;;;;;23.77;11.63;;;;;;;;;;5029597;28;20081;-74
2023/03/08 03:46:06;;;;;;;24.90;12.70;;;;;;;;;;5025718;28;20026;-74
2023/03/08 03:48:32;;;;;;;27.23;12.90;;;;;;;;;;5029573;28;20021;-74
2023/03/08 03:51:00;;;;;;;28.73;13.43;;;;;;;;;;5015790;28;20033;-75
2023/03/08 03:53:28;;;;;;;27.25;12.40;;;;;;;;;;5027461;28;21173;-73
2023/03/08 03:55:54;;;;;;;26.88;12.63;;;;;;;;;;5011218;28;20545;-73
2023/03/08 03:58:19;;;;;;;28.33;13.18;;;;;;;;;;5027892;28;20032;-73
2023/03/08 04:00:45;;;;;;;28.98;13.30;;;;;;;;;;5029278;28;20030;-73
2023/03/08 04:03:10;;;;;;;26.85;12.85;;;;;;;;;;5027654;28;20026;-74
2023/03/08 04:05:36;;;;;;;26.27;12.65;;;;;;;;;;5030808;28;20025;-74
2023/03/08 04:08:01;;;;;;;27.40;12.43;;;;;;;;;;5027746;28;20560;-74
2023/03/08 04:10:27;;;;;;;26.95;12.52;;;;;;;;;;5012982;28;20034;-74
2023/03/08 04:12:52;;;;;;;27.20;12.57;;;;;;;;;;5012060;28;20057;-74
2023/03/08 04:15:18;;;;;;;26.30;12.35;;;;;;;;;;5025336;28;20034;-75
2023/03/08 04:17:44;;;;;;;23.70;12.13;;;;;;;;;;5022027;28;20049;-73
2023/03/08 04:20:10;;;;;;;29.55;13.10;;;;;;;;;;5011816;28;20022;-73
2023/03/08 04:22:35;;;;;;;29.00;12.90;;;;;;;;;;4919075;28;20847;-75
2023/03/08 04:25:01;;;;;;;26.30;12.88;;;;;;;;;;5007451;28;20046;-74
2023/03/08 04:27:27;;;;;;;26.00;12.38;;;;;;;;;;5014444;28;20032;-73
2023/03/08 04:29:53;;;;;;;30.02;13.57;;;;;;;;;;5028137;28;20029;-73
2023/03/08 04:32:18;;;;;;;28.45;12.73;;;;;;;;;;5008599;28;20029;-74
2023/03/08 04:34:44;;;;;;;28.98;13.35;;;;;;;;;;5023488;28;20045;-73
2023/03/08 04:37:12;;;;;;;29.63;13.65;;;;;;;;;;5027603;28;20040;-74
2023/03/08 04:39:38;;;;;;;26.55;12.40;;;;;;;;;;5011692;28;20065;-73
2023/03/08 04:42:04;;;;;;;31.52;13.15;;;;;;;;;;5012296;28;20029;-74
2023/03/08 04:44:29;;;;;;;27.90;12.52;;;;;;;;;;5027866;28;20114;-73
2023/03/08 04:46:55;;;;;;;29.98;13.50;;;;;;;;;;5026858;28;20052;-74
2023/03/08 04:49:22;;;;;;;30.08;14.32;;;;;;;;;;5024955;28;20061;-74
2023/03/08 04:51:48;;;;;;;30.48;13.98;;;;;;;;;;5016271;28;20034;-73
2023/03/08 04:54:13;;;;;;;27.40;13.23;;;;;;;;;;5006991;28;20030;-74
2023/03/08 04:56:39;;;;;;;26.00;12.77;;;;;;;;;;5006351;28;20036;-74
2023/03/08 04:59:04;;;;;;;28.25;12.43;;;;;;;;;;5019290;28;20037;-73
2023/03/08 05:01:29;;;;;;;31.65;13.88;;;;;;;;;;5010167;28;20026;-74
2023/03/08 05:03:55;;;;;;;26.25;12.60;;;;;;;;;;5025586;28;20017;-73
2023/03/08 05:06:23;;;;;;;32.63;13.88;;;;;;;;;;5008198;28;20596;-73
2023/03/08 05:08:48;;;;;;;28.92;12.45;;;;;;;;;;5027432;28;20034;-75
2023/03/08 05:11:23;;;;;;;24.45;12.40;;;;;;;;;;5025127;28;20034;-73
2023/03/08 05:13:49;;;;;;;25.90;12.80;;;;;;;;;;5012246;28;20026;-73
2023/03/08 05:16:15;;;;;;;26.90;12.98;;;;;;;;;;5011484;28;20022;-73
2023/03/08 05:18:40;;;;;;;29.13;13.55;;;;;;;;;;5025941;28;20029;-76
2023/03/08 05:21:10;;;;;;;24.45;11.43;;;;;;;;;;5022583;28;20056;-74
2023/03/08 05:23:36;;;;;;;25.25;12.77;;;;;;;;;;4824932;23;20045;-75
2023/03/08 05:26:03;;;;;;;27.67;13.57;;;;;;;;;;5009812;28;20507;-75
2023/03/08 05:28:32;;;;;;;28.33;12.65;;;;;;;;;;5015491;28;20029;-75
2023/03/08 05:31:04;;;;;;;24.00;12.43;;;;;;;;;;5035079;28;20083;-75
2023/03/08 05:33:30;;;;;;;27.75;12.73;;;;;;;;;;5016205;28;20030;-76
2023/03/08 05:35:56;;;;;;;27.25;12.90;;;;;;;;;;5024082;28;20112;-75
2023/03/08 05:38:22;;;;;;;30.95;13.73;;;;;;;;;;5029186;28;20033;-75
2023/03/08 05:40:49;;;;;;;24.23;11.82;;;;;;;;;;5011126;28;20496;-75
2023/03/08 05:43:15;;;;;;;26.35;12.88;;;;;;;;;;5032603;28;20018;-75
2023/03/08 05:45:40;;;;;;;24.73;11.02;;;;;;;;;;5010605;28;20026;-75
2023/03/08 05:48:06;;;;;;;24.95;12.10;;;;;;;;;;5006351;28;20030;-75
2023/03/08 05:50:31;;;;;;;25.10;12.68;;;;;;;;;;5006990;28;20029;-75
2023/03/08 05:52:56;;;;;;;26.30;11.13;;;;;;;;;;5022769;28;20084;-75
2023/03/08 05:55:22;;;;;;;22.25;10.90;;;;;;;;;;5015350;28;20472;-75
2023/03/08 05:57:48;;;;;;;20.98;11.18;;;;;;;;;;5029727;28;20048;-75
2023/03/08 06:00:14;;;;;;;24.20;11.65;;;;;;;;;;5011823;28;20029;-75
2023/03/08 06:02:40;;;;;;;24.88;12.10;;;;;;;;;;5021183;28;20022;-75
2023/03/08 06:05:06;;;;;;;24.55;12.05;;;;;;;;;;5007248;28;20469;-75
2023/03/08 06:07:31;;;;;;;23.05;11.10;;;;;;;;;;5017457;28;20043;-75
2023/03/08 06:09:57;;;;;;;26.85;12.45;;;;;;;;;;5012862;28;20201;-75
2023/03/08 06:12:22;;;;;;;22.77;11.85;;;;;;;;;;5026127;28;20056;-75
2023/03/08 06:14:47;;;;;;;24.50;12.13;;;;;;;;;;5021865;28;20546;-75
2023/03/08 06:17:13;;;;;;;20.77;11.60;;;;;;;;;;5025131;28;20037;-75
2023/03/08 06:19:38;;;;;;;22.38;10.63;;;;;;;;;;5007816;28;20029;-75
2023/03/08 06:22:03;;;;;;;22.02;11.13;;;;;;;;;;5008546;28;20060;-75
2023/03/08 06:24:29;;;;;;;22.63;11.48;;;;;;;;;;5007329;28;20030;-75
2023/03/08 06:26:55;;;;;;;22.25;10.85;;;;;;;;;;5004767;28;20037;-75
2023/03/08 06:29:21;;;;;;;21.95;10.98;;;;;;;;;;4990828;28;20022;-75
2023/03/08 06:31:46;;;;;;;19.42;9.63;;;;;;;;;;5007337;28;20484;-75
2023/03/08 06:34:11;;;;;;;19.05;9.98;;;;;;;;;;4982650;28;20084;-75
2023/03/08 06:36:37;;;;;;;20.63;10.23;;;;;;;;;;4996261;28;20022;-75
2023/03/08 06:39:03;;;;;;;20.25;10.02;;;;;;;;;;4992073;28;20026;-75
2023/03/08 06:41:29;;;;;;;19.85;9.93;;;;;;;;;;4986132;28;20500;-75
2023/03/08 06:43:55;;;;;;;21.60;10.13;;;;;;;;;;4995600;28;20014;-75
2023/03/08 06:46:20;;;;;;;21.33;10.82;;;;;;;;;;5020698;28;20026;-75
2023/03/08 06:48:47;;;;;;;20.27;10.10;;;;;;;;;;4985126;28;20030;-75
2023/03/08 06:51:13;;;;;;;19.38;10.38;;;;;;;;;;5002076;28;20091;-75
2023/03/08 06:53:38;;;;;;;22.55;10.98;;;;;;;;;;5010927;28;20037;-75
2023/03/08 06:56:05;;;;;;;21.30;10.52;;;;;;;;;;4975002;28;20080;-75
2023/03/08 06:58:32;;;;;;;20.92;9.85;;;;;;;;;;5005809;28;20025;-75
2023/03/08 07:01:03;;;;;;;20.00;9.57;;;;;;;;;;5008014;28;20030;-75
2023/03/08 07:03:28;;;;;;;21.02;10.07;;;;;;;;;;5006854;28;20018;-75
2023/03/08 07:06:02;;;;;;;20.00;10.10;;;;;;;;;;5010017;28;20107;-75
2023/03/08 07:08:28;;;;;;;21.65;9.68;;;;;;;;;;5006591;28;20036;-75
2023/03/08 07:10:53;;;;;;;15.10;8.27;;;;;;;;;;4996215;28;20037;-75
2023/03/08 07:13:20;;;;;;;19.35;9.27;;;;;;;;;;5008769;28;20445;-75
2023/03/08 07:15:46;;;;;;;19.50;9.77;;;;;;;;;;5014468;28;20104;-75
2023/03/08 07:18:11;;;;;;;18.58;8.88;;;;;;;;;;4984781;28;20120;-75
2023/03/08 07:20:37;;;;;;;16.98;8.65;;;;;;;;;;5010182;28;20053;-75
2023/03/08 07:23:03;;;;;;;20.70;10.07;;;;;;;;;;4991253;28;20026;-75
2023/03/08 07:25:28;;;;;;;20.65;10.05;;;;;;;;;;4987438;28;20026;-75
2023/03/08 07:27:53;;;;;;;19.55;9.50;;;;;;;;;;5003986;28;20116;-75
2023/03/08 07:30:19;;;;;;;20.35;9.57;;;;;;;;;;5001341;28;20034;-75
2023/03/08 07:32:45;;;;;;;17.63;8.38;;;;;;;;;;4979509;28;20019;-75
2023/03/08 07:35:13;;;;;;;18.00;9.40;;;;;;;;;;5003309;28;20026;-75
2023/03/08 07:37:39;;;;;;;17.27;8.52;;;;;;;;;;5004686;28;20389;-75
2023/03/08 07:40:06;;;;;;;21.20;10.43;;;;;;;;;;4984212;28;20030;-75
2023/03/08 07:42:32;;;;;;;17.38;8.93;;;;;;;;;;4994695;28;20041;-75
2023/03/08 07:44:57;;;;;;;18.55;9.60;;;;;;;;;;5000177;28;20037;-75
2023/03/08 07:47:22;;;;;;;19.50;9.73;;;;;;;;;;5004760;28;20943;-75
2023/03/08 07:49:48;;;;;;;19.80;9.63;;;;;;;;;;5000740;28;20060;-75
2023/03/08 07:52:13;;;;;;;17.33;9.35;;;;;;;;;;4994005;28;20025;-75
2023/03/08 07:54:39;;;;;;;20.00;9.57;;;;;;;;;;5003275;28;20060;-75
2023/03/08 07:57:04;;;;;;;18.35;9.52;;;;;;;;;;5003821;28;20034;-76
2023/03/08 07:59:31;;;;;;;19.67;9.55;;;;;;;;;;5004874;28;20092;-75
2023/03/08 08:01:56;;;;;;;16.40;8.82;;;;;;;;;;5005574;28;20104;-75
2023/03/08 08:04:22;;;;;;;14.07;7.85;;;;;;;;;;5004261;28;20481;-75
2023/03/08 08:06:47;;;;;;;18.08;8.57;;;;;;;;;;4990287;28;20083;-75
2023/03/08 08:09:13;;;;;;;14.63;8.13;;;;;;;;;;5008757;28;20037;-75
2023/03/08 08:11:39;;;;;;;16.05;7.95;;;;;;;;;;5012902;28;20018;-75
2023/03/08 08:14:05;;;;;;;16.63;8.00;;;;;;;;;;5004931;28;20026;-75
2023/03/08 08:16:31;;;;;;;18.88;9.02;;;;;;;;;;5018973;28;20112;-75
2023/03/08 08:18:56;;;;;;;17.60;9.27;;;;;;;;;;5003068;28;20520;-76
2023/03/08 08:21:22;;;;;;;18.73;8.65;;;;;;;;;;4991915;28;20391;-75
2023/03/08 08:23:47;;;;;;;16.35;8.05;;;;;;;;;;4990070;28;20018;-75
2023/03/08 08:26:19;;;;;;;13.75;7.60;;;;;;;;;;4996608;28;20026;-76
2023/03/08 08:28:47;;;;;;;12.73;7.32;;;;;;;;;;5009355;28;20026;-75
2023/03/08 08:31:18;;;;;;;14.88;8.15;;;;;;;;;;5004746;28;20057;-75
2023/03/08 08:33:44;;;;;;;13.13;7.32;;;;;;;;;;5008738;28;20517;-76
2023/03/08 08:36:15;;;;;;;13.93;6.95;;;;;;;;;;5008765;28;20113;-76
2023/03/08 08:38:42;;;;;;;13.35;7.20;;;;;;;;;;4996759;28;20041;-75
2023/03/08 08:41:08;;;;;;;14.35;7.07;;;;;;;;;;4991663;28;20470;-75
2023/03/08 08:43:35;;;;;;;13.68;6.45;;;;;;;;;;5016394;28;20021;-75
2023/03/08 08:46:02;;;;;;;15.13;7.57;;;;;;;;;;5012424;28;20052;-75
2023/03/08 08:48:28;;;;;;;13.15;6.65;;;;;;;;;;5011825;28;20033;-76
2023/03/08 08:50:53;;;;;;;13.35;6.30;;;;;;;;;;5003422;28;20034;-75
2023/03/08 08:53:19;;;;;;;13.30;6.18;;;;;;;;;;5004838;28;20585;-75
2023/03/08 08:55:45;;;;;;;13.45;7.20;;;;;;;;;;5009264;28;20021;-75
2023/03/08 08:58:11;;;;;;;14.68;7.38;;;;;;;;;;5004644;28;20030;-75
2023/03/08 09:00:36;;;;;;;13.10;7.03;;;;;;;;;;5004206;28;20029;-75
2023/03/08 09:03:03;;;;;;;12.82;6.63;;;;;;;;;;5006423;28;20029;-75
2023/03/08 09:05:29;;;;;;;11.32;5.85;;;;;;;;;;5007684;28;20040;-75
2023/03/08 09:07:57;;;;;;;12.98;6.57;;;;;;;;;;5006818;28;20481;-75
2023/03/08 09:10:23;;;;;;;13.38;6.32;;;;;;;;;;5009161;28;20377;-75
2023/03/08 09:12:49;;;;;;;12.93;6.35;;;;;;;;;;5013677;28;20065;-75
2023/03/08 09:15:14;;;;;;;10.27;6.13;;;;;;;;;;4991643;28;20463;-76
2023/03/08 09:17:39;;;;;;;11.35;5.85;;;;;;;;;;4988575;28;20060;-75
2023/03/08 09:20:08;;;;;;;11.20;6.18;;;;;;;;;;5011053;28;20148;-76
2023/03/08 09:22:34;;;;;;;9.82;5.47;;;;;;;;;;5014879;28;20068;-75
2023/03/08 09:25:00;;;;;;;11.07;5.55;;;;;;;;;;5015857;28;20038;-75
2023/03/08 09:27:25;;;;;;;13.05;6.40;;;;;;;;;;5002596;28;20112;-75
2023/03/08 09:29:50;;;;;;;10.55;5.50;;;;;;;;;;5017221;28;20021;-75
2023/03/08 09:32:16;;;;;;;11.00;5.80;;;;;;;;;;5012454;28;20048;-75
2023/03/08 09:34:41;;;;;;;10.07;5.28;;;;;;;;;;5007431;28;20465;-76
2023/03/08 09:37:09;;;;;;;10.20;5.60;;;;;;;;;;5013320;28;20026;-75
2023/03/08 09:39:34;;;;;;;10.48;5.53;;;;;;;;;;5009785;28;20021;-76
2023/03/08 09:42:02;;;;;;;10.48;5.85;;;;;;;;;;5005494;28;20214;-75
2023/03/08 09:44:33;;;;;;;10.13;5.50;;;;;;;;;;5008298;28;20087;-75
2023/03/08 09:47:16;;;;;;;11.55;5.85;;;;;;;;;;5016827;28;20030;-75
2023/03/08 09:49:44;;;;;;;10.67;5.50;;;;;;;;;;4991569;28;20034;-75
2023/03/08 09:52:26;;;;;;;10.68;5.53;;;;;;;;;;4989508;28;20117;-75
2023/03/08 09:54:52;;;;;;;10.43;5.15;;;;;;;;;;4986175;28;20163;-75
2023/03/08 09:57:29;;;;;;;8.52;4.75;;;;;;;;;;4993591;28;20030;-75
2023/03/08 09:59:57;;;;;;;10.50;5.05;;;;;;;;;;4997052;28;20029;-75
2023/03/08 10:02:36;;;;;;;8.98;5.32;;;;;;;;;;5011478;28;20084;-75
2023/03/08 10:05:20;;;;;;;10.13;4.68;;;;;;;;;;4991667;28;20037;-76
2023/03/08 10:08:01;;;;;;;10.32;5.05;;;;;;;;;;5011202;28;20072;-76
2023/03/08 10:10:50;;;;;;;9.43;4.90;;;;;;;;;;5003116;28;20022;-75
2023/03/08 10:13:34;;;;;;;9.32;4.55;;;;;;;;;;5002820;28;20034;-75
2023/03/08 10:16:24;;;;;;;9.48;4.97;;;;;;;;;;5008158;28;20053;-75
2023/03/08 10:19:10;;;;;;;8.73;4.40;;;;;;;;;;5011275;28;20076;-75
2023/03/08 10:21:39;;;;;;;9.10;4.13;;;;;;;;;;5003524;28;20052;-75
2023/03/08 10:24:25;;;;;;;8.02;4.10;;;;;;;;;;4990650;28;20026;-74
2023/03/08 10:26:52;;;;;;;7.25;3.92;;;;;;;;;;5003379;28;20030;-74
2023/03/08 10:29:18;;;;;;;8.68;3.75;;;;;;;;;;5010898;28;20500;-74
2023/03/08 10:31:45;;;;;;;9.02;4.00;;;;;;;;;;5006073;28;20026;-74
2023/03/08 10:34:20;;;;;;;8.75;4.25;;;;;;;;;;4993318;28;20029;-75
2023/03/08 10:37:07;;;;;;;8.27;4.15;;;;;;;;;;5012952;28;20025;-75
2023/03/08 10:39:35;;;;;;;8.95;3.97;;;;;;;;;;5012219;28;20049;-74
2023/03/08 10:42:05;;;;;;;6.93;3.80;;;;;;;;;;4994134;28;20033;-74
2023/03/08 10:44:40;;;;;;;10.73;4.53;;;;;;;;;;5006725;28;20030;-74
2023/03/08 10:47:27;;;;;;;11.10;5.15;;;;;;;;;;5009178;28;20481;-75
2023/03/08 10:50:08;;;;;;;8.27;4.63;;;;;;;;;;5008454;28;20033;-75
2023/03/08 10:52:33;;;;;;;11.05;4.72;;;;;;;;;;5007077;28;20022;-75
2023/03/08 10:55:04;;;;;;;10.48;4.78;;;;;;;;;;5008792;28;20542;-74
2023/03/08 10:57:30;;;;;;;11.55;4.22;;;;;;;;;;4992413;28;20057;-74
2023/03/08 11:00:00;;;;;;;7.75;4.00;;;;;;;;;;4989558;28;20112;-74
2023/03/08 11:02:26;;;;;;;7.25;4.00;;;;;;;;;;5009903;28;20026;-75
2023/03/08 11:04:57;;;;;;;9.43;4.15;;;;;;;;;;5000322;28;20033;-75
2023/03/08 11:07:29;;;;;;;6.78;3.78;;;;;;;;;;5008409;28;20060;-74
2023/03/08 11:10:18;;;;;;;7.57;4.38;;;;;;;;;;4992169;28;20488;-75
2023/03/08 11:12:44;;;;;;;9.25;4.70;;;;;;;;;;4996748;28;20026;-75
2023/03/08 11:15:18;;;;;;;8.82;4.65;;;;;;;;;;5012646;28;20125;-75
2023/03/08 11:18:00;;;;;;;9.07;4.85;;;;;;;;;;4993972;28;20030;-74
2023/03/08 11:20:33;;;;;;;9.20;4.88;;;;;;;;;;5008313;28;20092;-74
2023/03/08 11:23:21;;;;;;;10.02;5.45;;;;;;;;;;4996841;28;20030;-74
2023/03/08 11:26:10;;;;;;;9.45;5.05;;;;;;;;;;5007976;28;20499;-74
2023/03/08 11:28:52;;;;;;;8.05;4.32;;;;;;;;;;4993619;28;20108;-75
2023/03/08 11:31:34;;;;;;;7.78;4.18;;;;;;;;;;5004964;28;20474;-74
2023/03/08 11:34:35;;;;;;;7.43;4.40;;;;;;;;;;4989356;28;20084;-74
2023/03/08 11:37:35;;;;;;;9.02;5.20;;;;;;;;;;5004087;28;20033;-75
2023/03/08 11:40:22;;;;;;;9.70;4.60;;;;;;;;;;5013294;28;20099;-74
2023/03/08 11:42:48;;;;;;;9.40;4.28;;;;;;;;;;5011286;28;20033;-74
2023/03/08 11:45:20;;;;;;;10.35;4.95;;;;;;;;;;5007368;28;20025;-74
2023/03/08 11:48:27;;;;;;;10.05;5.22;;;;;;;;;;5010251;28;20109;-75
2023/03/08 11:51:00;;;;;;;7.78;4.13;;;;;;;;;;4962799;28;20033;-75
2023/03/08 11:53:32;;;;;;;9.30;4.97;;;;;;;;;;4999666;28;20832;-74
2023/03/08 11:56:16;;;;;;;9.63;5.18;;;;;;;;;;5007890;28;20482;-74
2023/03/08 11:58:48;;;;;;;11.38;4.88;;;;;;;;;;4986043;28;20033;-74
2023/03/08 12:01:24;;;;;;;7.28;3.67;;;;;;;;;;4985922;28;20434;-74
2023/03/08 12:03:53;;;;;;;9.02;4.30;;;;;;;;;;5005977;28;20109;-74
2023/03/08 12:06:29;;;;;;;9.70;4.97;;;;;;;;;;5004356;28;20032;-74
2023/03/08 12:09:06;;;;;;;10.30;4.90;;;;;;;;;;5002043;28;20057;-74
2023/03/08 12:11:39;;;;;;;9.30;4.50;;;;;;;;;;4986970;28;20044;-75
2023/03/08 12:14:29;;;;;;;8.25;4.28;;;;;;;;;;5013742;28;20033;-75
2023/03/08 12:17:03;;;;;;;8.30;4.25;;;;;;;;;;4986698;28;20048;-74
2023/03/08 12:19:43;;;;;;;9.45;4.57;;;;;;;;;;5006416;28;20034;-74
2023/03/08 12:22:17;;;;;;;8.90;4.40;;;;;;;;;;5009289;28;20030;-74
2023/03/08 12:24:48;;;;;;;8.48;3.83;;;;;;;;;;5010863;28;20465;-75
2023/03/08 12:27:22;;;;;;;8.32;4.05;;;;;;;;;;5006248;28;20033;-75
2023/03/08 12:30:00;;;;;;;8.20;4.18;;;;;;;;;;5013334;28;20026;-75
2023/03/08 12:32:26;;;;;;;8.85;3.67;;;;;;;;;;5011304;28;20037;-75
2023/03/08 12:35:19;;;;;;;8.05;3.70;;;;;;;;;;5012676;28;20069;-75
2023/03/08 12:38:04;;;;;;;7.13;3.63;;;;;;;;;;5010608;28;20041;-75
2023/03/08 12:40:47;;;;;;;8.80;3.63;;;;;;;;;;4996958;28;20043;-74
2023/03/08 12:43:18;;;;;;;;;;;;;;;;;;5011495;28;20072;-75
2023/03/08 12:46:05;;;;;;;6.30;3.05;;;;;;;;;;5019891;28;19928;-74
2023/03/08 12:48:36;;;;;;;6.40;2.88;;;;;;;;;;5003506;28;20069;-75
2023/03/08 12:51:10;;;;;;;6.70;3.10;;;;;;;;;;5013902;28;20092;-75
2023/03/08 12:53:40;;;;;;;7.80;3.65;;;;;;;;;;5000195;28;20046;-75
2023/03/08 12:56:08;;;;;;;6.45;3.63;;;;;;;;;;5016608;28;20075;-75
2023/03/08 12:58:37;;;;;;;5.97;3.15;;;;;;;;;;5013010;28;20358;-74
2023/03/08 13:01:06;;;;;;;6.47;3.17;;;;;;;;;;5017929;28;20021;-75
2023/03/08 13:03:40;;;;;;;7.57;3.53;;;;;;;;;;4988433;28;20018;-74
2023/03/08 13:06:26;;;;;;;7.78;3.40;;;;;;;;;;5002912;28;20396;-74
2023/03/08 13:08:59;;;;;;;5.47;2.72;;;;;;;;;;4997406;28;20029;-74
2023/03/08 13:11:36;;;;;;;5.72;2.88;;;;;;;;;;5006894;28;20660;-75
2023/03/08 13:14:03;;;;;;;6.35;3.10;;;;;;;;;;5010491;28;20508;-75
2023/03/08 13:16:34;;;;;;;5.35;2.75;;;;;;;;;;5010915;28;20458;-74
2023/03/08 13:19:19;;;;;;;6.18;3.00;;;;;;;;;;5009255;28;20084;-75
2023/03/08 13:21:57;;;;;;;6.80;3.40;;;;;;;;;;5018964;28;20060;-75
2023/03/08 13:24:34;;;;;;;5.88;2.92;;;;;;;;;;4992008;28;20034;-75
2023/03/08 13:27:02;;;;;;;6.88;3.40;;;;;;;;;;4994211;28;20185;-74
2023/03/08 13:29:32;;;;;;;6.30;3.25;;;;;;;;;;5015895;28;20548;-75
2023/03/08 13:32:06;;;;;;;5.75;2.92;;;;;;;;;;5010321;28;20030;-75
2023/03/08 13:34:33;;;;;;;6.47;3.10;;;;;;;;;;5014361;28;20038;-75
2023/03/08 13:37:00;;;;;;;5.63;3.08;;;;;;;;;;5007629;28;20498;-74
2023/03/08 13:39:28;;;;;;;6.55;3.40;;;;;;;;;;5004252;28;20108;-75
2023/03/08 13:42:08;;;;;;;5.38;2.90;;;;;;;;;;5015885;28;20542;-74
2023/03/08 13:44:33;;;;;;;6.05;3.13;;;;;;;;;;5011173;28;20032;-75
2023/03/08 13:47:02;;;;;;;5.35;2.80;;;;;;;;;;5008080;28;20678;-74
2023/03/08 13:49:31;;;;;;;5.90;3.13;;;;;;;;;;4993232;28;20034;-76
2023/03/08 13:51:59;;;;;;;5.57;3.00;;;;;;;;;;4985996;28;20131;-76
2023/03/08 13:54:30;;;;;;;5.13;2.67;;;;;;;;;;4986444;28;20498;-76
2023/03/08 13:56:58;;;;;;;5.07;2.90;;;;;;;;;;5003420;28;20026;-79
2023/03/08 13:59:25;;;;;;;5.80;3.30;;;;;;;;;;5008223;28;20030;-76
2023/03/08 14:01:51;;;;;;;6.55;3.17;;;;;;;;;;5023333;28;20481;-76
2023/03/08 14:04:26;;;;;;;4.88;2.97;;;;;;;;;;5014407;28;20490;-76
2023/03/08 14:06:54;;;;;;;6.22;3.20;;;;;;;;;;5005275;28;20060;-76
2023/03/08 14:09:20;;;;;;;5.88;3.17;;;;;;;;;;5005743;28;20432;-75
2023/03/08 14:11:54;;;;;;;6.50;3.30;;;;;;;;;;5015497;28;20018;-75
2023/03/08 14:14:27;;;;;;;6.28;3.25;;;;;;;;;;5013237;28;20022;-76
2023/03/08 14:16:53;;;;;;;5.88;3.50;;;;;;;;;;5001696;28;20417;-76
2023/03/08 14:19:38;;;;;;;6.35;3.15;;;;;;;;;;5008969;28;20153;-76
2023/03/08 14:22:12;;;;;;;6.22;3.35;;;;;;;;;;5008335;28;20029;-76
2023/03/08 14:24:40;;;;;;;6.20;3.50;;;;;;;;;;4991848;28;20506;-76
2023/03/08 14:27:28;;;;;;;6.25;3.33;;;;;;;;;;4998171;28;20477;-76
2023/03/08 14:30:09;;;;;;;6.63;3.50;;;;;;;;;;4993665;28;20157;-76
2023/03/08 14:32:37;;;;;;;7.72;4.13;;;;;;;;;;5012720;28;20021;-75
2023/03/08 14:35:18;;;;;;;5.95;3.20;;;;;;;;;;5013522;28;20169;-76
2023/03/08 14:37:45;;;;;;;5.13;3.20;;;;;;;;;;5012081;28;20417;-75
2023/03/08 14:40:20;;;;;;;6.13;3.33;;;;;;;;;;4987529;28;20472;-76
2023/03/08 14:42:48;;;;;;;7.07;3.80;;;;;;;;;;5007605;28;20054;-76
2023/03/08 14:45:35;;;;;;;6.53;3.15;;;;;;;;;;5006136;28;20031;-75
2023/03/08 14:48:19;;;;;;;6.55;3.25;;;;;;;;;;4987502;28;20040;-76